sensor_id;sensor_type;location;lat;lon;timestamp;temperature;humidity
52181;DHT22;38158;53.338;6.514;2023-11-22T00:00:28;4.40;99.90
52181;DHT22;38158;53.338;6.514;2023-11-22T00:02:54;4.50;99.90
52181;DHT22;38158;53.338;6.514;2023-11-22T00:05:20;4.50;99.90
52181;DHT22;38158;53.338;6.514;2023-11-22T00:07:46;4.50;99.90
52181;DHT22;38158;53.338;6.514;2023-11-22T00:10:13;4.50;99.90
52181;DHT22;38158;53.338;6.514;2023-11-22T00:12:39;4.50;99.90
52181;DHT22;38158;53.338;6.514;2023-11-22T00:15:06;4.60;99.90
52181;DHT22;38158;53.338;6.514;2023-11-22T00:17:33;4.40;99.90
52181;DHT22;38158;53.338;6.514;2023-11-22T00:20:00;4.40;99.90
52181;DHT22;38158;53.338;6.514;2023-11-22T00:22:34;4.40;99.90
52181;DHT22;38158;53.338;6.514;2023-11-22T00:25:00;4.50;99.90
52181;DHT22;38158;53.338;6.514;2023-11-22T00:27:30;4.50;99.90
52181;DHT22;38158;53.338;6.514;2023-11-22T00:29:57;4.50;99.90
52181;DHT22;38158;53.338;6.514;2023-11-22T00:32:24;4.50;99.90
52181;DHT22;38158;53.338;6.514;2023-11-22T00:34:49;4.50;99.90
52181;DHT22;38158;53.338;6.514;2023-11-22T00:37:15;4.50;99.90
52181;DHT22;38158;53.338;6.514;2023-11-22T00:39:41;4.50;99.90
52181;DHT22;38158;53.338;6.514;2023-11-22T00:42:08;4.50;99.90
52181;DHT22;38158;53.338;6.514;2023-11-22T00:44:34;4.40;99.90
52181;DHT22;38158;53.338;6.514;2023-11-22T00:47:02;4.50;99.90
52181;DHT22;38158;53.338;6.514;2023-11-22T00:49:28;4.50;99.90
52181;DHT22;38158;53.338;6.514;2023-11-22T00:51:53;4.50;99.90
52181;DHT22;38158;53.338;6.514;2023-11-22T00:54:19;4.50;99.90
52181;DHT22;38158;53.338;6.514;2023-11-22T00:56:46;4.50;99.90
52181;DHT22;38158;53.338;6.514;2023-11-22T00:59:12;4.50;99.90
52181;DHT22;38158;53.338;6.514;2023-11-22T01:01:39;4.50;99.90
52181;DHT22;38158;53.338;6.514;2023-11-22T01:04:05;4.50;99.90
52181;DHT22;38158;53.338;6.514;2023-11-22T01:06:33;4.50;99.90
52181;DHT22;38158;53.338;6.514;2023-11-22T01:08:59;4.40;99.90
52181;DHT22;38158;53.338;6.514;2023-11-22T01:11:24;4.40;99.90
52181;DHT22;38158;53.338;6.514;2023-11-22T01:13:50;4.30;99.90
52181;DHT22;38158;53.338;6.514;2023-11-22T01:16:16;4.30;99.90
52181;DHT22;38158;53.338;6.514;2023-11-22T01:18:42;4.30;99.90
52181;DHT22;38158;53.338;6.514;2023-11-22T01:21:08;4.30;99.90
52181;DHT22;38158;53.338;6.514;2023-11-22T01:23:34;4.20;99.90
52181;DHT22;38158;53.338;6.514;2023-11-22T01:26:00;4.70;99.90
52181;DHT22;38158;53.338;6.514;2023-11-22T01:28:28;4.10;99.90
52181;DHT22;38158;53.338;6.514;2023-11-22T01:30:55;4.00;99.90
52181;DHT22;38158;53.338;6.514;2023-11-22T01:33:22;4.10;99.90
52181;DHT22;38158;53.338;6.514;2023-11-22T01:35:47;4.00;99.90
52181;DHT22;38158;53.338;6.514;2023-11-22T01:38:14;3.90;99.90
52181;DHT22;38158;53.338;6.514;2023-11-22T01:40:46;4.20;99.90
52181;DHT22;38158;53.338;6.514;2023-11-22T01:43:17;3.90;99.90
52181;DHT22;38158;53.338;6.514;2023-11-22T01:45:43;4.00;99.90
52181;DHT22;38158;53.338;6.514;2023-11-22T01:48:11;3.80;99.90
52181;DHT22;38158;53.338;6.514;2023-11-22T01:50:40;3.90;99.90
52181;DHT22;38158;53.338;6.514;2023-11-22T01:53:10;4.40;99.90
52181;DHT22;38158;53.338;6.514;2023-11-22T01:55:36;3.80;99.90
52181;DHT22;38158;53.338;6.514;2023-11-22T01:58:02;3.80;99.90
52181;DHT22;38158;53.338;6.514;2023-11-22T02:00:34;3.70;99.90
52181;DHT22;38158;53.338;6.514;2023-11-22T02:03:01;3.70;99.90
52181;DHT22;38158;53.338;6.514;2023-11-22T02:05:27;3.70;99.90
52181;DHT22;38158;53.338;6.514;2023-11-22T02:07:53;3.70;99.90
52181;DHT22;38158;53.338;6.514;2023-11-22T02:10:19;3.70;99.90
52181;DHT22;38158;53.338;6.514;2023-11-22T02:12:44;3.70;99.90
52181;DHT22;38158;53.338;6.514;2023-11-22T02:15:10;3.60;99.90
52181;DHT22;38158;53.338;6.514;2023-11-22T02:17:37;3.60;99.90
52181;DHT22;38158;53.338;6.514;2023-11-22T02:20:03;3.60;99.90
52181;DHT22;38158;53.338;6.514;2023-11-22T02:22:31;3.70;99.90
52181;DHT22;38158;53.338;6.514;2023-11-22T02:24:57;3.80;99.90
52181;DHT22;38158;53.338;6.514;2023-11-22T02:27:23;3.70;99.90
52181;DHT22;38158;53.338;6.514;2023-11-22T02:29:49;3.70;99.90
52181;DHT22;38158;53.338;6.514;2023-11-22T02:32:15;4.10;99.90
52181;DHT22;38158;53.338;6.514;2023-11-22T02:34:41;3.60;99.90
52181;DHT22;38158;53.338;6.514;2023-11-22T02:37:07;3.60;99.90
52181;DHT22;38158;53.338;6.514;2023-11-22T02:40:16;3.50;99.90
52181;DHT22;38158;53.338;6.514;2023-11-22T02:42:39;3.50;99.90
52181;DHT22;38158;53.338;6.514;2023-11-22T02:45:06;3.50;99.90
52181;DHT22;38158;53.338;6.514;2023-11-22T02:47:32;3.50;99.90
52181;DHT22;38158;53.338;6.514;2023-11-22T02:50:01;3.50;99.90
52181;DHT22;38158;53.338;6.514;2023-11-22T02:52:26;3.50;99.90
52181;DHT22;38158;53.338;6.514;2023-11-22T02:54:54;3.40;99.90
52181;DHT22;38158;53.338;6.514;2023-11-22T02:57:20;3.40;99.90
52181;DHT22;38158;53.338;6.514;2023-11-22T02:59:46;3.80;99.90
52181;DHT22;38158;53.338;6.514;2023-11-22T03:02:11;3.70;99.90
52181;DHT22;38158;53.338;6.514;2023-11-22T03:04:37;3.30;99.90
52181;DHT22;38158;53.338;6.514;2023-11-22T03:07:04;3.40;99.90
52181;DHT22;38158;53.338;6.514;2023-11-22T03:09:32;3.20;99.90
52181;DHT22;38158;53.338;6.514;2023-11-22T03:11:57;4.70;99.90
52181;DHT22;38158;53.338;6.514;2023-11-22T03:14:23;3.10;99.90
52181;DHT22;38158;53.338;6.514;2023-11-22T03:16:49;3.10;99.90
52181;DHT22;38158;53.338;6.514;2023-11-22T03:19:15;3.10;99.90
52181;DHT22;38158;53.338;6.514;2023-11-22T03:21:41;3.10;99.90
52181;DHT22;38158;53.338;6.514;2023-11-22T03:24:09;3.00;99.90
52181;DHT22;38158;53.338;6.514;2023-11-22T03:26:35;3.10;99.90
52181;DHT22;38158;53.338;6.514;2023-11-22T03:29:01;3.00;99.90
52181;DHT22;38158;53.338;6.514;2023-11-22T03:31:28;3.00;99.90
52181;DHT22;38158;53.338;6.514;2023-11-22T03:33:54;3.00;99.90
52181;DHT22;38158;53.338;6.514;2023-11-22T03:36:20;4.40;99.90
52181;DHT22;38158;53.338;6.514;2023-11-22T03:38:46;2.90;99.90
52181;DHT22;38158;53.338;6.514;2023-11-22T03:41:12;2.90;99.90
52181;DHT22;38158;53.338;6.514;2023-11-22T03:43:37;3.00;99.90
52181;DHT22;38158;53.338;6.514;2023-11-22T03:46:03;2.80;99.90
52181;DHT22;38158;53.338;6.514;2023-11-22T03:48:29;3.20;99.90
52181;DHT22;38158;53.338;6.514;2023-11-22T03:50:54;3.50;99.90
52181;DHT22;38158;53.338;6.514;2023-11-22T03:53:20;3.80;99.90
52181;DHT22;38158;53.338;6.514;2023-11-22T03:55:48;2.90;99.90
52181;DHT22;38158;53.338;6.514;2023-11-22T03:58:15;2.70;99.90
52181;DHT22;38158;53.338;6.514;2023-11-22T04:00:41;2.70;99.90
52181;DHT22;38158;53.338;6.514;2023-11-22T04:03:06;2.70;99.90
52181;DHT22;38158;53.338;6.514;2023-11-22T04:05:32;2.70;99.90
52181;DHT22;38158;53.338;6.514;2023-11-22T04:07:58;2.90;99.90
52181;DHT22;38158;53.338;6.514;2023-11-22T04:10:24;3.10;99.90
52181;DHT22;38158;53.338;6.514;2023-11-22T04:12:50;2.70;99.90
52181;DHT22;38158;53.338;6.514;2023-11-22T04:15:16;2.70;99.90
52181;DHT22;38158;53.338;6.514;2023-11-22T04:17:42;3.10;99.90
52181;DHT22;38158;53.338;6.514;2023-11-22T04:20:08;2.80;99.90
52181;DHT22;38158;53.338;6.514;2023-11-22T04:22:36;2.50;99.90
52181;DHT22;38158;53.338;6.514;2023-11-22T04:25:02;2.40;99.90
52181;DHT22;38158;53.338;6.514;2023-11-22T04:27:29;2.40;99.90
52181;DHT22;38158;53.338;6.514;2023-11-22T04:29:55;2.30;99.90
52181;DHT22;38158;53.338;6.514;2023-11-22T04:32:21;2.30;99.90
52181;DHT22;38158;53.338;6.514;2023-11-22T04:34:47;2.30;99.90
52181;DHT22;38158;53.338;6.514;2023-11-22T04:37:13;2.60;99.90
52181;DHT22;38158;53.338;6.514;2023-11-22T04:39:39;2.50;99.90
52181;DHT22;38158;53.338;6.514;2023-11-22T04:42:05;3.70;99.90
52181;DHT22;38158;53.338;6.514;2023-11-22T04:44:31;2.30;99.90
52181;DHT22;38158;53.338;6.514;2023-11-22T04:46:58;3.00;99.90
52181;DHT22;38158;53.338;6.514;2023-11-22T04:49:25;2.20;99.90
52181;DHT22;38158;53.338;6.514;2023-11-22T04:51:51;3.00;99.90
52181;DHT22;38158;53.338;6.514;2023-11-22T04:54:16;2.20;99.90
52181;DHT22;38158;53.338;6.514;2023-11-22T04:56:43;3.00;99.90
52181;DHT22;38158;53.338;6.514;2023-11-22T04:59:08;2.80;99.90
52181;DHT22;38158;53.338;6.514;2023-11-22T05:01:35;2.30;99.90
52181;DHT22;38158;53.338;6.514;2023-11-22T05:04:01;2.30;99.90
52181;DHT22;38158;53.338;6.514;2023-11-22T05:06:27;2.90;99.90
52181;DHT22;38158;53.338;6.514;2023-11-22T05:08:54;2.40;99.90
52181;DHT22;38158;53.338;6.514;2023-11-22T05:11:21;2.50;99.90
52181;DHT22;38158;53.338;6.514;2023-11-22T05:13:46;2.50;99.90
52181;DHT22;38158;53.338;6.514;2023-11-22T05:16:12;2.50;99.90
52181;DHT22;38158;53.338;6.514;2023-11-22T05:18:38;3.70;99.90
52181;DHT22;38158;53.338;6.514;2023-11-22T05:21:04;3.10;99.90
52181;DHT22;38158;53.338;6.514;2023-11-22T05:23:30;2.50;99.90
52181;DHT22;38158;53.338;6.514;2023-11-22T05:25:59;3.30;99.90
52181;DHT22;38158;53.338;6.514;2023-11-22T05:28:29;2.50;99.90
52181;DHT22;38158;53.338;6.514;2023-11-22T05:30:54;2.50;99.90
52181;DHT22;38158;53.338;6.514;2023-11-22T05:33:20;2.50;99.90
52181;DHT22;38158;53.338;6.514;2023-11-22T05:35:46;2.50;99.90
52181;DHT22;38158;53.338;6.514;2023-11-22T05:38:11;2.50;99.90
52181;DHT22;38158;53.338;6.514;2023-11-22T05:40:37;3.20;99.90
52181;DHT22;38158;53.338;6.514;2023-11-22T05:43:04;3.40;99.90
52181;DHT22;38158;53.338;6.514;2023-11-22T05:45:30;2.50;99.90
52181;DHT22;38158;53.338;6.514;2023-11-22T05:47:56;2.50;99.90
52181;DHT22;38158;53.338;6.514;2023-11-22T05:50:21;2.50;99.90
52181;DHT22;38158;53.338;6.514;2023-11-22T05:52:50;2.50;99.90
52181;DHT22;38158;53.338;6.514;2023-11-22T05:55:16;2.70;99.90
52181;DHT22;38158;53.338;6.514;2023-11-22T05:57:44;2.50;99.90
52181;DHT22;38158;53.338;6.514;2023-11-22T06:00:10;2.50;99.90
52181;DHT22;38158;53.338;6.514;2023-11-22T06:02:36;2.50;99.90
52181;DHT22;38158;53.338;6.514;2023-11-22T06:05:04;3.50;99.90
52181;DHT22;38158;53.338;6.514;2023-11-22T06:07:31;2.50;99.90
52181;DHT22;38158;53.338;6.514;2023-11-22T06:09:57;2.50;99.90
52181;DHT22;38158;53.338;6.514;2023-11-22T06:12:23;2.90;99.90
52181;DHT22;38158;53.338;6.514;2023-11-22T06:14:49;2.50;99.90
52181;DHT22;38158;53.338;6.514;2023-11-22T06:17:14;2.50;99.90
52181;DHT22;38158;53.338;6.514;2023-11-22T06:19:40;2.50;99.90
52181;DHT22;38158;53.338;6.514;2023-11-22T06:22:09;2.50;99.90
52181;DHT22;38158;53.338;6.514;2023-11-22T06:24:35;2.50;99.90
52181;DHT22;38158;53.338;6.514;2023-11-22T06:27:02;2.50;99.90
52181;DHT22;38158;53.338;6.514;2023-11-22T06:29:28;2.40;99.90
52181;DHT22;38158;53.338;6.514;2023-11-22T06:31:54;2.40;99.90
52181;DHT22;38158;53.338;6.514;2023-11-22T06:34:20;2.40;99.90
52181;DHT22;38158;53.338;6.514;2023-11-22T06:36:46;2.40;99.90
52181;DHT22;38158;53.338;6.514;2023-11-22T06:39:12;2.80;99.90
52181;DHT22;38158;53.338;6.514;2023-11-22T06:41:41;2.40;99.90
52181;DHT22;38158;53.338;6.514;2023-11-22T06:44:06;2.30;99.90
52181;DHT22;38158;53.338;6.514;2023-11-22T06:46:32;2.90;99.90
52181;DHT22;38158;53.338;6.514;2023-11-22T06:48:58;3.20;99.90
52181;DHT22;38158;53.338;6.514;2023-11-22T06:51:24;2.30;99.90
52181;DHT22;38158;53.338;6.514;2023-11-22T06:53:50;3.70;99.90
52181;DHT22;38158;53.338;6.514;2023-11-22T06:56:18;2.30;99.90
52181;DHT22;38158;53.338;6.514;2023-11-22T06:58:43;2.70;99.90
52181;DHT22;38158;53.338;6.514;2023-11-22T07:01:09;2.90;99.90
52181;DHT22;38158;53.338;6.514;2023-11-22T07:03:36;1.20;99.90
52181;DHT22;38158;53.338;6.514;2023-11-22T07:06:03;2.20;99.90
52181;DHT22;38158;53.338;6.514;2023-11-22T07:08:30;2.20;99.90
52181;DHT22;38158;53.338;6.514;2023-11-22T07:10:56;2.60;99.90
52181;DHT22;38158;53.338;6.514;2023-11-22T07:13:23;2.10;99.90
52181;DHT22;38158;53.338;6.514;2023-11-22T07:15:50;2.30;99.90
52181;DHT22;38158;53.338;6.514;2023-11-22T07:18:16;2.10;99.90
52181;DHT22;38158;53.338;6.514;2023-11-22T07:20:42;2.20;99.90
52181;DHT22;38158;53.338;6.514;2023-11-22T07:23:08;3.60;99.90
52181;DHT22;38158;53.338;6.514;2023-11-22T07:25:39;2.20;99.90
52181;DHT22;38158;53.338;6.514;2023-11-22T07:28:04;3.80;99.90
52181;DHT22;38158;53.338;6.514;2023-11-22T07:30:30;2.30;99.90
52181;DHT22;38158;53.338;6.514;2023-11-22T07:32:58;2.30;99.90
52181;DHT22;38158;53.338;6.514;2023-11-22T07:35:24;2.30;99.90
52181;DHT22;38158;53.338;6.514;2023-11-22T07:37:51;2.30;99.90
52181;DHT22;38158;53.338;6.514;2023-11-22T07:40:17;3.00;99.90
52181;DHT22;38158;53.338;6.514;2023-11-22T07:42:44;2.40;99.90
52181;DHT22;38158;53.338;6.514;2023-11-22T07:45:10;2.50;99.90
52181;DHT22;38158;53.338;6.514;2023-11-22T07:47:39;3.30;99.90
52181;DHT22;38158;53.338;6.514;2023-11-22T07:50:08;4.40;99.90
52181;DHT22;38158;53.338;6.514;2023-11-22T07:52:33;2.50;99.90
52181;DHT22;38158;53.338;6.514;2023-11-22T07:54:59;2.60;99.90
52181;DHT22;38158;53.338;6.514;2023-11-22T07:57:25;3.30;99.90
52181;DHT22;38158;53.338;6.514;2023-11-22T07:59:51;2.50;99.90
52181;DHT22;38158;53.338;6.514;2023-11-22T08:02:21;2.50;99.90
52181;DHT22;38158;53.338;6.514;2023-11-22T08:04:48;2.50;99.90
52181;DHT22;38158;53.338;6.514;2023-11-22T08:07:16;2.50;99.90
52181;DHT22;38158;53.338;6.514;2023-11-22T08:09:42;2.50;99.90
52181;DHT22;38158;53.338;6.514;2023-11-22T08:12:09;2.50;99.90
52181;DHT22;38158;53.338;6.514;2023-11-22T08:14:37;2.50;99.90
52181;DHT22;38158;53.338;6.514;2023-11-22T08:17:03;2.50;99.90
52181;DHT22;38158;53.338;6.514;2023-11-22T08:19:29;2.50;99.90
52181;DHT22;38158;53.338;6.514;2023-11-22T08:21:55;3.70;99.90
52181;DHT22;38158;53.338;6.514;2023-11-22T08:24:21;2.60;99.90
52181;DHT22;38158;53.338;6.514;2023-11-22T08:26:47;2.60;99.90
52181;DHT22;38158;53.338;6.514;2023-11-22T08:29:13;3.20;99.90
52181;DHT22;38158;53.338;6.514;2023-11-22T08:31:40;3.40;99.90
52181;DHT22;38158;53.338;6.514;2023-11-22T08:34:06;2.60;99.90
52181;DHT22;38158;53.338;6.514;2023-11-22T08:36:35;2.60;99.90
52181;DHT22;38158;53.338;6.514;2023-11-22T08:39:02;2.60;99.90
52181;DHT22;38158;53.338;6.514;2023-11-22T08:41:29;2.70;99.90
52181;DHT22;38158;53.338;6.514;2023-11-22T08:43:56;4.10;99.90
52181;DHT22;38158;53.338;6.514;2023-11-22T08:46:22;2.70;99.90
52181;DHT22;38158;53.338;6.514;2023-11-22T08:48:49;2.80;99.90
52181;DHT22;38158;53.338;6.514;2023-11-22T08:51:16;2.80;99.90
52181;DHT22;38158;53.338;6.514;2023-11-22T08:53:43;2.80;99.90
52181;DHT22;38158;53.338;6.514;2023-11-22T08:56:12;2.80;99.90
52181;DHT22;38158;53.338;6.514;2023-11-22T08:58:39;3.20;99.90
52181;DHT22;38158;53.338;6.514;2023-11-22T09:01:05;4.50;99.90
52181;DHT22;38158;53.338;6.514;2023-11-22T09:03:33;3.00;99.90
52181;DHT22;38158;53.338;6.514;2023-11-22T09:06:00;2.90;99.90
52181;DHT22;38158;53.338;6.514;2023-11-22T09:08:26;3.00;99.90
52181;DHT22;38158;53.338;6.514;2023-11-22T09:10:52;3.00;99.90
52181;DHT22;38158;53.338;6.514;2023-11-22T09:13:18;3.00;99.90
52181;DHT22;38158;53.338;6.514;2023-11-22T09:15:46;3.00;99.90
52181;DHT22;38158;53.338;6.514;2023-11-22T09:18:12;3.10;99.90
52181;DHT22;38158;53.338;6.514;2023-11-22T09:20:38;3.10;99.90
52181;DHT22;38158;53.338;6.514;2023-11-22T09:23:04;3.10;99.90
52181;DHT22;38158;53.338;6.514;2023-11-22T09:25:30;3.10;99.90
52181;DHT22;38158;53.338;6.514;2023-11-22T09:27:59;3.80;99.90
52181;DHT22;38158;53.338;6.514;2023-11-22T09:30:29;3.50;99.90
52181;DHT22;38158;53.338;6.514;2023-11-22T09:32:59;4.50;99.90
52181;DHT22;38158;53.338;6.514;2023-11-22T09:35:25;3.20;99.90
52181;DHT22;38158;53.338;6.514;2023-11-22T09:37:51;3.30;99.90
52181;DHT22;38158;53.338;6.514;2023-11-22T09:40:17;3.30;99.90
52181;DHT22;38158;53.338;6.514;2023-11-22T09:42:44;3.60;99.90
52181;DHT22;38158;53.338;6.514;2023-11-22T09:45:19;3.30;99.90
52181;DHT22;38158;53.338;6.514;2023-11-22T09:47:46;3.70;99.90
52181;DHT22;38158;53.338;6.514;2023-11-22T09:53:58;3.50;99.90
52181;DHT22;38158;53.338;6.514;2023-11-22T09:56:28;3.70;99.90
52181;DHT22;38158;53.338;6.514;2023-11-22T09:58:58;3.60;99.90
52181;DHT22;38158;53.338;6.514;2023-11-22T10:01:27;3.60;99.90
52181;DHT22;38158;53.338;6.514;2023-11-22T10:04:02;3.60;99.90
52181;DHT22;38158;53.338;6.514;2023-11-22T10:06:31;3.60;99.90
52181;DHT22;38158;53.338;6.514;2023-11-22T10:09:01;3.80;99.90
52181;DHT22;38158;53.338;6.514;2023-11-22T10:11:26;3.60;99.90
52181;DHT22;38158;53.338;6.514;2023-11-22T10:13:54;3.90;99.90
52181;DHT22;38158;53.338;6.514;2023-11-22T10:16:20;3.70;99.90
52181;DHT22;38158;53.338;6.514;2023-11-22T10:18:48;3.70;99.90
52181;DHT22;38158;53.338;6.514;2023-11-22T10:21:24;3.70;99.90
52181;DHT22;38158;53.338;6.514;2023-11-22T10:24:10;3.70;99.90
52181;DHT22;38158;53.338;6.514;2023-11-22T10:26:36;4.10;99.90
52181;DHT22;38158;53.338;6.514;2023-11-22T10:29:02;3.80;99.90
52181;DHT22;38158;53.338;6.514;2023-11-22T10:31:28;3.80;99.90
52181;DHT22;38158;53.338;6.514;2023-11-22T10:33:54;3.90;99.90
52181;DHT22;38158;53.338;6.514;2023-11-22T10:36:23;4.00;99.90
52181;DHT22;38158;53.338;6.514;2023-11-22T10:38:49;4.40;99.90
52181;DHT22;38158;53.338;6.514;2023-11-22T10:41:16;4.40;99.90
52181;DHT22;38158;53.338;6.514;2023-11-22T10:43:44;4.10;99.90
52181;DHT22;38158;53.338;6.514;2023-11-22T10:46:12;4.30;99.90
52181;DHT22;38158;53.338;6.514;2023-11-22T10:48:38;4.20;99.90
52181;DHT22;38158;53.338;6.514;2023-11-22T10:51:05;4.20;99.90
52181;DHT22;38158;53.338;6.514;2023-11-22T10:53:35;4.20;99.90
52181;DHT22;38158;53.338;6.514;2023-11-22T10:58:32;4.20;99.90
52181;DHT22;38158;53.338;6.514;2023-11-22T11:01:00;4.30;99.90
52181;DHT22;38158;53.338;6.514;2023-11-22T11:03:28;4.40;99.90
52181;DHT22;38158;53.338;6.514;2023-11-22T11:06:02;4.30;99.90
52181;DHT22;38158;53.338;6.514;2023-11-22T11:08:33;4.40;99.90
52181;DHT22;38158;53.338;6.514;2023-11-22T11:11:04;4.40;99.90
52181;DHT22;38158;53.338;6.514;2023-11-22T11:13:31;4.50;99.90
52181;DHT22;38158;53.338;6.514;2023-11-22T11:15:57;4.60;99.90
52181;DHT22;38158;53.338;6.514;2023-11-22T11:18:24;4.70;99.90
52181;DHT22;38158;53.338;6.514;2023-11-22T11:20:55;4.80;99.90
52181;DHT22;38158;53.338;6.514;2023-11-22T11:23:23;4.90;99.90
52181;DHT22;38158;53.338;6.514;2023-11-22T11:28:20;4.90;99.90
52181;DHT22;38158;53.338;6.514;2023-11-22T11:30:47;5.00;99.90
52181;DHT22;38158;53.338;6.514;2023-11-22T11:33:18;5.00;99.90
52181;DHT22;38158;53.338;6.514;2023-11-22T11:35:47;5.00;99.90
52181;DHT22;38158;53.338;6.514;2023-11-22T11:38:14;5.00;99.90
52181;DHT22;38158;53.338;6.514;2023-11-22T11:40:45;5.00;99.90
52181;DHT22;38158;53.338;6.514;2023-11-22T11:43:12;5.10;99.90
52181;DHT22;38158;53.338;6.514;2023-11-22T11:45:42;5.10;99.90
52181;DHT22;38158;53.338;6.514;2023-11-22T11:48:16;5.10;99.90
52181;DHT22;38158;53.338;6.514;2023-11-22T11:50:43;5.10;99.90
52181;DHT22;38158;53.338;6.514;2023-11-22T11:53:11;5.10;99.90
52181;DHT22;38158;53.338;6.514;2023-11-22T11:55:38;5.10;99.90
52181;DHT22;38158;53.338;6.514;2023-11-22T11:58:07;5.10;99.90
52181;DHT22;38158;53.338;6.514;2023-11-22T12:00:36;5.10;99.90
52181;DHT22;38158;53.338;6.514;2023-11-22T12:03:08;5.10;99.90
52181;DHT22;38158;53.338;6.514;2023-11-22T12:05:38;5.50;99.90
52181;DHT22;38158;53.338;6.514;2023-11-22T12:08:04;5.00;99.90
52181;DHT22;38158;53.338;6.514;2023-11-22T12:10:30;5.00;99.90
52181;DHT22;38158;53.338;6.514;2023-11-22T12:12:56;5.00;99.90
52181;DHT22;38158;53.338;6.514;2023-11-22T12:15:22;5.00;99.90
52181;DHT22;38158;53.338;6.514;2023-11-22T12:17:51;5.00;99.90
52181;DHT22;38158;53.338;6.514;2023-11-22T12:20:19;4.90;99.90
52181;DHT22;38158;53.338;6.514;2023-11-22T12:22:50;4.90;99.90
52181;DHT22;38158;53.338;6.514;2023-11-22T12:25:15;4.90;99.90
52181;DHT22;38158;53.338;6.514;2023-11-22T12:27:42;4.90;99.90
52181;DHT22;38158;53.338;6.514;2023-11-22T12:30:09;4.90;99.90
52181;DHT22;38158;53.338;6.514;2023-11-22T12:32:52;4.90;99.90
52181;DHT22;38158;53.338;6.514;2023-11-22T12:35:18;4.90;99.90
52181;DHT22;38158;53.338;6.514;2023-11-22T12:37:44;4.90;99.90
52181;DHT22;38158;53.338;6.514;2023-11-22T12:40:10;4.90;99.90
52181;DHT22;38158;53.338;6.514;2023-11-22T12:42:50;4.90;99.90
52181;DHT22;38158;53.338;6.514;2023-11-22T12:45:20;5.00;99.90
52181;DHT22;38158;53.338;6.514;2023-11-22T12:47:46;4.90;99.90
52181;DHT22;38158;53.338;6.514;2023-11-22T12:52:55;4.90;99.90
52181;DHT22;38158;53.338;6.514;2023-11-22T12:55:21;5.00;99.90
52181;DHT22;38158;53.338;6.514;2023-11-22T12:57:57;4.00;99.90
52181;DHT22;38158;53.338;6.514;2023-11-22T13:00:24;5.00;99.90
52181;DHT22;38158;53.338;6.514;2023-11-22T13:02:50;5.00;99.90
52181;DHT22;38158;53.338;6.514;2023-11-22T13:05:18;5.00;99.90
52181;DHT22;38158;53.338;6.514;2023-11-22T13:07:44;5.00;99.90
52181;DHT22;38158;53.338;6.514;2023-11-22T13:10:10;4.90;99.90
52181;DHT22;38158;53.338;6.514;2023-11-22T13:12:35;5.00;99.90
52181;DHT22;38158;53.338;6.514;2023-11-22T13:15:01;4.90;99.90
52181;DHT22;38158;53.338;6.514;2023-11-22T13:17:27;5.20;99.90
52181;DHT22;38158;53.338;6.514;2023-11-22T13:19:53;4.90;99.90
52181;DHT22;38158;53.338;6.514;2023-11-22T13:22:19;5.70;99.90
52181;DHT22;38158;53.338;6.514;2023-11-22T13:24:45;4.90;99.90
52181;DHT22;38158;53.338;6.514;2023-11-22T13:27:11;4.90;99.90
52181;DHT22;38158;53.338;6.514;2023-11-22T13:29:36;4.90;99.90
52181;DHT22;38158;53.338;6.514;2023-11-22T13:32:02;4.80;99.90
52181;DHT22;38158;53.338;6.514;2023-11-22T13:34:28;4.80;99.90
52181;DHT22;38158;53.338;6.514;2023-11-22T13:36:54;4.80;99.90
52181;DHT22;38158;53.338;6.514;2023-11-22T13:39:21;4.80;99.90
52181;DHT22;38158;53.338;6.514;2023-11-22T13:41:47;4.80;99.90
52181;DHT22;38158;53.338;6.514;2023-11-22T13:44:15;4.80;99.90
52181;DHT22;38158;53.338;6.514;2023-11-22T13:46:40;4.80;99.90
52181;DHT22;38158;53.338;6.514;2023-11-22T13:49:06;4.80;99.90
52181;DHT22;38158;53.338;6.514;2023-11-22T13:51:32;4.70;99.90
52181;DHT22;38158;53.338;6.514;2023-11-22T13:53:57;4.80;99.90
52181;DHT22;38158;53.338;6.514;2023-11-22T13:56:26;4.80;99.90
52181;DHT22;38158;53.338;6.514;2023-11-22T13:58:52;4.70;99.90
52181;DHT22;38158;53.338;6.514;2023-11-22T14:01:17;4.70;99.90
52181;DHT22;38158;53.338;6.514;2023-11-22T14:03:47;4.70;99.90
52181;DHT22;38158;53.338;6.514;2023-11-22T14:06:13;4.70;99.90
52181;DHT22;38158;53.338;6.514;2023-11-22T14:08:42;4.70;99.90
52181;DHT22;38158;53.338;6.514;2023-11-22T14:11:07;4.70;99.90
52181;DHT22;38158;53.338;6.514;2023-11-22T14:13:33;4.90;99.90
52181;DHT22;38158;53.338;6.514;2023-11-22T14:15:59;4.70;99.90
52181;DHT22;38158;53.338;6.514;2023-11-22T14:18:26;4.70;99.90
52181;DHT22;38158;53.338;6.514;2023-11-22T14:20:52;4.70;99.90
52181;DHT22;38158;53.338;6.514;2023-11-22T14:23:18;4.70;99.90
52181;DHT22;38158;53.338;6.514;2023-11-22T14:25:44;5.30;99.90
52181;DHT22;38158;53.338;6.514;2023-11-22T14:28:10;4.70;99.90
52181;DHT22;38158;53.338;6.514;2023-11-22T14:30:36;4.70;99.90
52181;DHT22;38158;53.338;6.514;2023-11-22T14:33:06;4.70;99.90
52181;DHT22;38158;53.338;6.514;2023-11-22T14:35:33;5.80;99.90
52181;DHT22;38158;53.338;6.514;2023-11-22T14:38:00;5.00;99.90
52181;DHT22;38158;53.338;6.514;2023-11-22T14:40:28;4.70;99.90
52181;DHT22;38158;53.338;6.514;2023-11-22T14:42:56;4.70;99.90
52181;DHT22;38158;53.338;6.514;2023-11-22T14:45:22;4.70;99.90
52181;DHT22;38158;53.338;6.514;2023-11-22T14:47:48;4.70;99.90
52181;DHT22;38158;53.338;6.514;2023-11-22T14:50:16;4.60;99.90
52181;DHT22;38158;53.338;6.514;2023-11-22T14:52:42;4.70;99.90
52181;DHT22;38158;53.338;6.514;2023-11-22T14:55:09;4.70;99.90
52181;DHT22;38158;53.338;6.514;2023-11-22T14:57:37;4.60;99.90
52181;DHT22;38158;53.338;6.514;2023-11-22T15:00:05;4.70;99.90
52181;DHT22;38158;53.338;6.514;2023-11-22T15:02:35;4.70;99.90
52181;DHT22;38158;53.338;6.514;2023-11-22T15:05:02;4.70;99.90
52181;DHT22;38158;53.338;6.514;2023-11-22T15:07:29;4.60;99.90
52181;DHT22;38158;53.338;6.514;2023-11-22T15:09:55;4.60;99.90
52181;DHT22;38158;53.338;6.514;2023-11-22T15:12:20;4.60;99.90
52181;DHT22;38158;53.338;6.514;2023-11-22T15:14:46;4.70;99.90
52181;DHT22;38158;53.338;6.514;2023-11-22T15:17:13;4.70;99.90
52181;DHT22;38158;53.338;6.514;2023-11-22T15:19:39;4.70;99.90
52181;DHT22;38158;53.338;6.514;2023-11-22T15:22:07;4.70;99.90
52181;DHT22;38158;53.338;6.514;2023-11-22T15:24:34;5.00;99.90
52181;DHT22;38158;53.338;6.514;2023-11-22T15:27:00;4.80;99.90
52181;DHT22;38158;53.338;6.514;2023-11-22T15:29:25;4.70;99.90
52181;DHT22;38158;53.338;6.514;2023-11-22T15:31:52;4.70;99.90
52181;DHT22;38158;53.338;6.514;2023-11-22T15:34:19;4.70;99.90
52181;DHT22;38158;53.338;6.514;2023-11-22T15:36:45;4.70;99.90
52181;DHT22;38158;53.338;6.514;2023-11-22T15:39:11;4.80;99.90
52181;DHT22;38158;53.338;6.514;2023-11-22T15:41:43;4.80;99.90
52181;DHT22;38158;53.338;6.514;2023-11-22T15:44:09;4.80;99.90
52181;DHT22;38158;53.338;6.514;2023-11-22T15:46:35;4.80;99.90
52181;DHT22;38158;53.338;6.514;2023-11-22T15:49:00;4.80;99.90
52181;DHT22;38158;53.338;6.514;2023-11-22T15:51:26;4.80;99.90
52181;DHT22;38158;53.338;6.514;2023-11-22T15:53:52;4.80;99.90